createdAt,value
2022-09-28T00:01:24.578Z,18.40
2022-09-28T00:03:54.440Z,18.40
2022-09-28T00:06:27.446Z,18.40
2022-09-28T00:08:55.033Z,18.40
2022-09-28T00:11:23.643Z,18.40
2022-09-28T00:13:52.572Z,18.40
2022-09-28T00:16:23.050Z,18.40
2022-09-28T00:18:51.252Z,18.30
2022-09-28T00:21:24.406Z,18.30
2022-09-28T00:24:15.257Z,18.30
2022-09-28T00:26:49.867Z,18.30
2022-09-28T00:29:21.983Z,18.30
2022-09-28T00:31:52.214Z,18.20
2022-09-28T00:34:19.791Z,18.20
2022-09-28T00:36:48.062Z,18.20
2022-09-28T00:39:16.375Z,18.20
2022-09-28T00:41:44.111Z,18.20
2022-09-28T00:44:25.740Z,18.20
2022-09-28T00:47:03.944Z,18.20
2022-09-28T00:50:13.767Z,18.10
2022-09-28T00:53:03.009Z,18.10
2022-09-28T00:55:57.784Z,18.20
2022-09-28T00:58:31.464Z,18.10
2022-09-28T01:00:59.660Z,18.10
2022-09-28T01:03:28.216Z,18.10
2022-09-28T01:05:59.041Z,18.10
2022-09-28T01:08:28.522Z,18.10
2022-09-28T01:10:56.059Z,18.10
2022-09-28T01:13:24.651Z,18.10
2022-09-28T01:16:29.459Z,18.00
2022-09-28T01:19:03.820Z,18.00
2022-09-28T01:21:51.874Z,18.10
2022-09-28T01:24:47.901Z,18.10
2022-09-28T01:27:20.851Z,18.00
2022-09-28T01:30:11.743Z,18.00
2022-09-28T01:32:49.076Z,18.00
2022-09-28T01:35:24.738Z,18.00
2022-09-28T01:37:54.004Z,18.00
2022-09-28T01:40:24.751Z,18.00
2022-09-28T01:42:58.562Z,18.00
2022-09-28T01:45:46.846Z,18.00
2022-09-28T01:48:19.279Z,18.00
2022-09-28T01:50:50.735Z,18.00
2022-09-28T01:53:17.640Z,18.00
2022-09-28T01:55:56.449Z,18.00
2022-09-28T01:58:32.531Z,18.00
2022-09-28T02:01:15.131Z,18.00
2022-09-28T02:03:47.696Z,18.00
2022-09-28T02:06:21.624Z,18.00
2022-09-28T02:09:11.578Z,18.00
2022-09-28T02:11:50.431Z,18.00
2022-09-28T02:14:19.758Z,18.00
2022-09-28T02:16:51.018Z,18.00
2022-09-28T02:19:27.686Z,18.00
2022-09-28T02:22:23.478Z,18.00
2022-09-28T02:25:07.868Z,18.00
2022-09-28T02:27:49.100Z,18.00
2022-09-28T02:30:17.906Z,18.00
2022-09-28T02:32:49.692Z,17.90
2022-09-28T02:35:18.720Z,18.00
2022-09-28T02:37:46.226Z,18.00
2022-09-28T02:40:23.870Z,18.00
2022-09-28T02:43:23.646Z,18.00
2022-09-28T02:46:08.751Z,18.00
2022-09-28T02:49:23.449Z,17.90
2022-09-28T02:52:29.327Z,17.90
2022-09-28T02:55:31.723Z,17.90
2022-09-28T02:58:30.206Z,18.00
2022-09-28T03:01:21.707Z,17.90
2022-09-28T03:03:59.700Z,18.00
2022-09-28T03:06:46.107Z,18.00
2022-09-28T03:09:41.607Z,18.00
2022-09-28T03:12:11.921Z,18.00
2022-09-28T03:14:39.549Z,18.00
2022-09-28T03:17:07.302Z,18.00
2022-09-28T03:19:36.698Z,17.90
2022-09-28T03:22:05.598Z,17.90
2022-09-28T03:24:32.571Z,18.00
2022-09-28T03:26:59.628Z,18.00
2022-09-28T03:29:26.724Z,18.00
2022-09-28T03:31:59.420Z,17.90
2022-09-28T03:34:26.422Z,17.90
2022-09-28T03:36:53.391Z,17.90
2022-09-28T03:39:20.356Z,17.90
2022-09-28T03:41:47.270Z,17.90
2022-09-28T03:44:14.353Z,17.90
2022-09-28T03:46:41.632Z,18.00
2022-09-28T03:49:10.284Z,17.90
2022-09-28T03:51:37.376Z,17.90
2022-09-28T03:54:04.723Z,17.90
2022-09-28T03:56:32.007Z,17.90
2022-09-28T03:58:59.136Z,17.90
2022-09-28T04:01:27.666Z,17.90
2022-09-28T04:03:55.937Z,17.90
2022-09-28T04:06:24.551Z,17.90
2022-09-28T04:08:52.044Z,17.90
2022-09-28T04:11:19.217Z,17.90
2022-09-28T04:13:50.052Z,17.90
2022-09-28T04:16:36.004Z,17.90
2022-09-28T04:19:10.046Z,17.90
2022-09-28T04:22:02.348Z,17.90
2022-09-28T04:24:29.480Z,17.90
2022-09-28T04:27:16.789Z,17.90
2022-09-28T04:29:44.143Z,17.90
2022-09-28T04:32:12.702Z,17.90
2022-09-28T04:34:44.076Z,17.90
2022-09-28T04:37:11.917Z,17.80
2022-09-28T04:39:42.295Z,17.90
2022-09-28T04:42:12.582Z,17.90
2022-09-28T04:44:39.606Z,17.90
2022-09-28T04:47:09.856Z,17.90
2022-09-28T04:49:59.923Z,17.80
2022-09-28T04:52:31.912Z,17.80
2022-09-28T04:54:58.905Z,17.80
2022-09-28T04:57:26.376Z,17.80
2022-09-28T04:59:54.649Z,17.90
2022-09-28T05:02:21.657Z,17.80
2022-09-28T05:05:07.751Z,17.80
2022-09-28T05:07:59.051Z,17.80
2022-09-28T05:10:26.322Z,17.80
2022-09-28T05:12:54.096Z,17.80
2022-09-28T05:15:21.056Z,17.80
2022-09-28T05:17:48.810Z,17.80
2022-09-28T05:20:42.209Z,17.80
2022-09-28T05:23:13.308Z,17.80
2022-09-28T05:25:42.719Z,17.80
2022-09-28T05:28:24.249Z,17.80
2022-09-28T05:31:14.268Z,17.80
2022-09-28T05:34:16.851Z,17.80
2022-09-28T05:36:46.007Z,17.80
2022-09-28T05:39:13.109Z,17.80
2022-09-28T05:41:40.289Z,17.80
2022-09-28T05:44:07.633Z,17.80
2022-09-28T05:46:36.180Z,17.80
2022-09-28T05:49:03.559Z,17.80
2022-09-28T05:51:30.604Z,17.80
2022-09-28T05:54:01.807Z,17.80
2022-09-28T05:56:32.241Z,17.80
2022-09-28T05:59:05.292Z,17.80
2022-09-28T06:01:32.529Z,17.80
2022-09-28T06:04:00.994Z,17.80
2022-09-28T06:06:28.011Z,17.80
2022-09-28T06:08:56.379Z,17.80
2022-09-28T06:11:43.554Z,17.80
2022-09-28T06:14:20.353Z,17.80
2022-09-28T06:16:47.572Z,17.80
2022-09-28T06:19:14.789Z,17.80
2022-09-28T06:21:59.152Z,17.80
2022-09-28T06:24:26.587Z,17.80
2022-09-28T06:26:53.580Z,17.80
2022-09-28T06:29:21.746Z,17.90
2022-09-28T06:31:48.732Z,17.90
2022-09-28T06:34:17.358Z,17.90
2022-09-28T06:37:04.717Z,17.90
2022-09-28T06:39:32.560Z,17.90
2022-09-28T06:42:04.439Z,17.90
2022-09-28T06:44:52.025Z,17.90
2022-09-28T06:47:32.108Z,17.90
2022-09-28T06:50:16.860Z,17.90
2022-09-28T06:52:54.501Z,18.00
2022-09-28T06:55:32.853Z,17.90
2022-09-28T06:58:04.739Z,18.00
2022-09-28T07:00:34.563Z,18.00
2022-09-28T07:03:02.807Z,18.00
2022-09-28T07:05:54.011Z,18.00
2022-09-28T07:08:39.649Z,18.00
2022-09-28T07:11:26.943Z,18.10
2022-09-28T07:14:12.815Z,18.10
2022-09-28T07:17:10.804Z,18.10
2022-09-28T07:19:36.537Z,18.10
2022-09-28T07:22:05.602Z,18.20
2022-09-28T07:24:33.192Z,18.20
2022-09-28T07:27:19.974Z,18.20
2022-09-28T07:30:06.425Z,18.20
2022-09-28T07:32:52.121Z,18.20
2022-09-28T07:35:28.072Z,18.30
2022-09-28T07:38:05.284Z,18.30
2022-09-28T07:40:52.063Z,18.30
2022-09-28T07:43:20.953Z,18.30
2022-09-28T07:45:52.597Z,18.30
2022-09-28T07:48:20.461Z,18.40
2022-09-28T07:51:01.625Z,18.40
2022-09-28T07:53:39.394Z,18.40
2022-09-28T07:56:35.843Z,18.50
2022-09-28T07:59:18.341Z,18.50
2022-09-28T08:02:00.371Z,18.50
2022-09-28T08:04:29.169Z,18.60
2022-09-28T08:06:56.433Z,18.50
2022-09-28T08:09:23.441Z,18.50
2022-09-28T08:12:10.033Z,18.60
2022-09-28T08:14:58.884Z,18.60
2022-09-28T08:17:47.060Z,18.50
2022-09-28T08:20:32.928Z,18.50
2022-09-28T08:23:11.303Z,18.50
2022-09-28T08:25:40.499Z,18.50
2022-09-28T08:28:09.702Z,18.50
2022-09-28T08:30:46.946Z,18.50
2022-09-28T08:33:37.448Z,18.50
2022-09-28T08:36:23.993Z,18.50
2022-09-28T08:39:26.231Z,18.50
2022-09-28T08:42:08.867Z,18.50
2022-09-28T08:44:46.336Z,18.50
2022-09-28T08:48:10.233Z,18.50
2022-09-28T08:51:11.015Z,18.60
2022-09-28T08:54:06.845Z,18.60
2022-09-28T08:56:47.194Z,18.70
2022-09-28T08:59:18.640Z,18.70
2022-09-28T09:01:58.464Z,18.70
2022-09-28T09:04:27.126Z,18.80
2022-09-28T09:07:21.341Z,18.80
2022-09-28T09:10:36.317Z,18.90
2022-09-28T09:13:12.454Z,19.00
2022-09-28T09:16:03.087Z,19.00
2022-09-28T09:19:06.407Z,19.10
2022-09-28T09:22:03.026Z,19.10
2022-09-28T09:24:43.037Z,19.10
2022-09-28T09:27:43.323Z,19.20
2022-09-28T09:30:17.380Z,19.20
2022-09-28T09:33:31.155Z,19.10
2022-09-28T09:37:10.372Z,19.20
2022-09-28T09:40:26.253Z,19.20
2022-09-28T09:43:31.536Z,19.10
2022-09-28T09:46:37.496Z,19.10
2022-09-28T09:49:21.951Z,19.10
2022-09-28T09:52:01.541Z,19.10
2022-09-28T09:54:52.415Z,19.20
2022-09-28T09:57:44.699Z,19.20
2022-09-28T10:00:28.325Z,19.20
2022-09-28T10:03:19.665Z,19.20
2022-09-28T10:05:55.362Z,19.20
2022-09-28T10:08:24.228Z,19.30
2022-09-28T10:11:07.644Z,19.30
2022-09-28T10:13:39.077Z,19.30
2022-09-28T10:16:19.183Z,19.30
2022-09-28T10:18:55.127Z,19.20
2022-09-28T10:21:59.994Z,19.30
2022-09-28T10:24:32.060Z,19.30
2022-09-28T10:27:15.460Z,19.30
2022-09-28T10:29:59.430Z,19.20
2022-09-28T10:32:39.527Z,19.20
2022-09-28T10:35:19.164Z,19.20
2022-09-28T10:38:15.812Z,19.20
2022-09-28T10:40:55.344Z,19.20
2022-09-28T10:43:36.980Z,19.30
2022-09-28T10:46:08.083Z,19.30
2022-09-28T10:48:56.481Z,19.30
2022-09-28T10:51:51.719Z,19.40
2022-09-28T10:54:26.600Z,19.40
2022-09-28T10:56:55.339Z,19.40
2022-09-28T10:59:40.215Z,19.50
2022-09-28T11:02:36.181Z,19.50
2022-09-28T11:05:22.032Z,19.50
2022-09-28T11:07:51.885Z,19.50
2022-09-28T11:10:26.348Z,19.50
2022-09-28T11:12:57.857Z,19.60
2022-09-28T11:15:31.321Z,19.60
2022-09-28T11:18:24.320Z,19.60
2022-09-28T11:20:51.446Z,19.60
2022-09-28T11:23:31.087Z,19.60
2022-09-28T11:26:08.921Z,19.60
2022-09-28T11:28:38.267Z,19.50
2022-09-28T11:31:14.487Z,19.60
2022-09-28T11:34:12.660Z,19.60
2022-09-28T11:37:23.577Z,19.60
2022-09-28T11:40:12.923Z,19.60
2022-09-28T11:42:49.140Z,19.60
2022-09-28T11:45:39.448Z,19.60
2022-09-28T11:48:11.135Z,19.70
2022-09-28T11:51:00.095Z,19.70
2022-09-28T11:53:40.387Z,19.70
2022-09-28T11:56:16.320Z,19.70
2022-09-28T11:58:49.053Z,19.70
2022-09-28T12:01:42.701Z,19.70
2022-09-28T12:04:36.829Z,19.70
2022-09-28T12:07:13.446Z,19.70
2022-09-28T12:09:59.319Z,19.70
2022-09-28T12:12:55.206Z,19.70
2022-09-28T12:15:38.203Z,19.70
2022-09-28T12:18:29.064Z,19.70
2022-09-28T12:21:19.789Z,19.80
2022-09-28T12:23:48.556Z,19.80
2022-09-28T12:26:38.964Z,19.80
2022-09-28T12:29:13.692Z,19.80
2022-09-28T12:32:10.873Z,19.80
2022-09-28T12:34:37.891Z,19.80
2022-09-28T12:37:25.750Z,19.80
2022-09-28T12:40:12.632Z,19.80
2022-09-28T12:42:52.941Z,19.80
2022-09-28T12:46:11.133Z,19.80
2022-09-28T12:49:43.686Z,19.80
2022-09-28T12:51:48.509Z,19.90
2022-09-28T12:54:31.635Z,19.90
2022-09-28T12:57:19.875Z,20.00
2022-09-28T13:00:04.352Z,20.10
2022-09-28T13:02:53.100Z,20.20
2022-09-28T13:05:36.304Z,20.20
2022-09-28T13:08:03.590Z,20.20
2022-09-28T13:10:54.990Z,20.10
2022-09-28T13:13:47.916Z,20.10
2022-09-28T13:16:28.196Z,20.10
2022-09-28T13:19:24.108Z,20.10
2022-09-28T13:21:57.628Z,20.10
2022-09-28T13:24:33.103Z,20.10
2022-09-28T13:27:10.244Z,20.10
2022-09-28T13:32:12.751Z,20.20
2022-09-28T13:34:40.072Z,20.30
2022-09-28T13:37:20.368Z,20.40
2022-09-28T13:39:52.932Z,20.40
2022-09-28T13:42:43.852Z,20.40
2022-09-28T13:45:23.103Z,20.40
2022-09-28T13:48:20.625Z,20.40
2022-09-28T13:50:50.358Z,20.50
2022-09-28T13:53:46.571Z,20.50
2022-09-28T13:56:42.368Z,20.50
2022-09-28T13:59:21.427Z,20.60
2022-09-28T14:02:19.795Z,20.70
2022-09-28T14:05:05.658Z,20.80
2022-09-28T14:07:35.651Z,20.90
2022-09-28T14:10:44.472Z,21.00
2022-09-28T14:13:12.245Z,21.00
2022-09-28T14:15:42.441Z,21.00
2022-09-28T14:18:23.467Z,20.90
2022-09-28T14:21:39.712Z,20.90
2022-09-28T14:24:15.400Z,20.90
2022-09-28T14:27:06.303Z,20.80
2022-09-28T14:29:37.793Z,20.80
2022-09-28T14:32:31.216Z,20.70
2022-09-28T14:35:04.720Z,20.70
2022-09-28T14:37:55.865Z,20.70
2022-09-28T14:40:49.618Z,20.70
2022-09-28T14:43:45.298Z,20.70
2022-09-28T14:46:13.039Z,20.80
2022-09-28T14:48:52.685Z,20.80
2022-09-28T14:51:30.133Z,20.80
2022-09-28T14:54:05.275Z,20.80
2022-09-28T14:56:40.364Z,20.90
2022-09-28T14:59:17.600Z,20.90
2022-09-28T15:01:53.871Z,20.90
2022-09-28T15:04:22.824Z,20.90
2022-09-28T15:06:51.595Z,20.90
2022-09-28T15:09:39.156Z,20.90
2022-09-28T15:12:15.744Z,20.80
2022-09-28T15:14:51.555Z,20.80
2022-09-28T15:17:39.259Z,20.80
2022-09-28T15:20:31.441Z,20.70
2022-09-28T15:23:00.106Z,20.60
2022-09-28T15:25:32.643Z,20.60
2022-09-28T15:28:06.551Z,20.60
2022-09-28T15:30:36.397Z,20.60
2022-09-28T15:33:23.389Z,20.60
2022-09-28T15:35:57.024Z,20.70
2022-09-28T15:38:24.208Z,20.80
2022-09-28T15:40:51.650Z,20.90
2022-09-28T15:43:32.952Z,20.80
2022-09-28T15:46:20.691Z,20.80
2022-09-28T15:48:55.479Z,20.90
2022-09-28T15:51:24.499Z,20.80
2022-09-28T15:54:19.548Z,20.80
2022-09-28T15:57:02.563Z,20.80
2022-09-28T15:59:35.251Z,20.70
2022-09-28T16:02:22.881Z,20.70
2022-09-28T16:04:54.208Z,20.70
2022-09-28T16:07:40.524Z,20.70
2022-09-28T16:10:13.899Z,20.70
2022-09-28T16:12:42.317Z,20.60
2022-09-28T16:15:21.041Z,20.60
2022-09-28T16:18:00.654Z,20.60
2022-09-28T16:20:34.188Z,20.50
2022-09-28T16:23:09.744Z,20.50
2022-09-28T16:25:39.046Z,20.50
2022-09-28T16:28:06.952Z,20.50
2022-09-28T16:30:34.766Z,20.40
2022-09-28T16:33:25.787Z,20.40
2022-09-28T16:35:53.067Z,20.40
2022-09-28T16:38:20.295Z,20.40
2022-09-28T16:40:52.694Z,20.40
2022-09-28T16:43:27.012Z,20.40
2022-09-28T16:46:01.821Z,20.30
2022-09-28T16:48:31.531Z,20.30
2022-09-28T16:50:59.100Z,20.30
2022-09-28T16:53:45.270Z,20.30
2022-09-28T16:56:13.372Z,20.30
2022-09-28T16:58:42.441Z,20.20
2022-09-28T17:01:12.100Z,20.20
2022-09-28T17:03:42.263Z,20.20
2022-09-28T17:06:11.072Z,20.10
2022-09-28T17:08:38.152Z,20.10
2022-09-28T17:11:24.438Z,20.10
2022-09-28T17:13:53.558Z,20.00
2022-09-28T17:16:36.774Z,20.00
2022-09-28T17:19:24.317Z,20.00
2022-09-28T17:21:52.674Z,19.90
2022-09-28T17:24:20.252Z,19.90
2022-09-28T17:26:49.196Z,19.90
2022-09-28T17:29:16.536Z,19.80
2022-09-28T17:31:45.144Z,19.90
2022-09-28T17:34:16.303Z,19.90
2022-09-28T17:36:44.770Z,19.90
2022-09-28T17:39:13.667Z,19.80
2022-09-28T17:41:41.123Z,19.80
2022-09-28T17:44:08.777Z,19.80
2022-09-28T17:46:45.854Z,19.80
2022-09-28T17:49:13.192Z,19.80
2022-09-28T17:51:40.253Z,19.80
2022-09-28T17:54:08.693Z,19.80
2022-09-28T17:56:36.747Z,19.80
2022-09-28T17:59:10.724Z,19.80
2022-09-28T18:01:39.875Z,19.80
2022-09-28T18:04:08.831Z,19.70
2022-09-28T18:06:37.294Z,19.70
2022-09-28T18:09:05.328Z,19.70
2022-09-28T18:11:33.295Z,19.70
2022-09-28T18:14:00.628Z,19.70
2022-09-28T18:16:28.899Z,19.70
2022-09-28T18:18:56.464Z,19.70
2022-09-28T18:21:23.507Z,19.70
2022-09-28T18:23:50.640Z,19.70
2022-09-28T18:26:21.004Z,19.70
2022-09-28T18:28:48.033Z,19.70
2022-09-28T18:31:16.210Z,19.70
2022-09-28T18:33:52.116Z,19.70
2022-09-28T18:36:19.065Z,19.70
2022-09-28T18:38:46.060Z,19.60
2022-09-28T18:41:15.795Z,19.60
2022-09-28T18:43:53.125Z,19.60
2022-09-28T18:46:20.162Z,19.60
2022-09-28T18:48:50.240Z,19.60
2022-09-28T18:51:17.256Z,19.60
2022-09-28T18:53:44.274Z,19.60
2022-09-28T18:56:17.044Z,19.60
2022-09-28T18:58:45.198Z,19.60
2022-09-28T19:01:31.337Z,19.60
2022-09-28T19:04:04.138Z,19.60
2022-09-28T19:06:32.430Z,19.60
2022-09-28T19:09:00.369Z,19.60
2022-09-28T19:11:28.504Z,19.50
2022-09-28T19:13:55.945Z,19.50
2022-09-28T19:16:28.722Z,19.50
2022-09-28T19:18:57.094Z,19.50
2022-09-28T19:21:24.533Z,19.50
2022-09-28T19:23:53.592Z,19.50
2022-09-28T19:26:23.335Z,19.50
2022-09-28T19:28:50.634Z,19.50
2022-09-28T19:31:17.858Z,19.50
2022-09-28T19:33:46.553Z,19.50
2022-09-28T19:36:19.411Z,19.50
2022-09-28T19:38:46.562Z,19.50
2022-09-28T19:41:43.931Z,19.50
2022-09-28T19:44:21.090Z,19.40
2022-09-28T19:46:48.133Z,19.50
2022-09-28T19:49:22.620Z,19.40
2022-09-28T19:52:11.645Z,19.40
2022-09-28T19:54:38.143Z,19.40
2022-09-28T19:57:07.745Z,19.40
2022-09-28T19:59:37.005Z,19.30
2022-09-28T20:02:05.636Z,19.30
2022-09-28T20:04:32.619Z,19.30
2022-09-28T20:06:59.661Z,19.30
2022-09-28T20:09:26.628Z,19.30
2022-09-28T20:11:54.127Z,19.30
2022-09-28T20:14:23.371Z,19.30
2022-09-28T20:16:53.136Z,19.30
2022-09-28T20:19:21.769Z,19.20
2022-09-28T20:21:49.604Z,19.20
2022-09-28T20:24:17.371Z,19.20
2022-09-28T20:26:46.040Z,19.20
2022-09-28T20:29:13.155Z,19.20
2022-09-28T20:31:40.207Z,19.20
2022-09-28T20:34:07.533Z,19.20
2022-09-28T20:36:34.863Z,19.20
2022-09-28T20:39:04.184Z,19.20
2022-09-28T20:41:36.699Z,19.20
2022-09-28T20:44:14.288Z,19.20
2022-09-28T20:46:43.700Z,19.20
2022-09-28T20:49:10.931Z,19.20
2022-09-28T20:51:37.903Z,19.20
2022-09-28T20:54:04.915Z,19.20
2022-09-28T20:56:38.747Z,19.20
2022-09-28T20:59:11.273Z,19.10
2022-09-28T21:01:38.742Z,19.20
2022-09-28T21:04:07.650Z,19.10
2022-09-28T21:06:37.350Z,19.10
2022-09-28T21:09:05.788Z,19.10
2022-09-28T21:11:34.259Z,19.10
2022-09-28T21:14:03.269Z,19.10
2022-09-28T21:16:32.652Z,19.10
2022-09-28T21:18:59.738Z,19.00
2022-09-28T21:21:27.486Z,19.00
2022-09-28T21:23:58.457Z,19.10
2022-09-28T21:26:28.921Z,19.00
2022-09-28T21:29:04.709Z,19.00
2022-09-28T21:31:41.274Z,19.00
2022-09-28T21:34:13.433Z,19.00
2022-09-28T21:36:43.549Z,19.00
2022-09-28T21:39:10.860Z,19.00
2022-09-28T21:41:38.126Z,19.00
2022-09-28T21:44:05.454Z,19.00
2022-09-28T21:46:35.432Z,19.00
2022-09-28T21:49:04.663Z,18.90
2022-09-28T21:51:31.851Z,19.00
2022-09-28T21:53:58.941Z,19.00
2022-09-28T21:56:26.915Z,18.90
2022-09-28T21:58:53.852Z,18.90
2022-09-28T22:01:23.592Z,18.90
2022-09-28T22:03:54.058Z,18.90
2022-09-28T22:06:23.139Z,18.90
2022-09-28T22:08:50.705Z,18.90
2022-09-28T22:11:20.195Z,18.90
2022-09-28T22:13:50.847Z,18.90
2022-09-28T22:16:21.621Z,18.90
2022-09-28T22:18:49.213Z,18.90
2022-09-28T22:21:22.135Z,18.90
2022-09-28T22:23:49.838Z,18.90
2022-09-28T22:26:25.146Z,18.90
2022-09-28T22:29:00.059Z,18.90
2022-09-28T22:31:33.686Z,18.90
2022-09-28T22:34:01.028Z,18.80
2022-09-28T22:36:28.558Z,18.80
2022-09-28T22:38:56.400Z,18.80
2022-09-28T22:41:24.404Z,18.80
2022-09-28T22:43:53.362Z,18.80
2022-09-28T22:46:25.938Z,18.80
2022-09-28T22:48:55.094Z,18.80
2022-09-28T22:51:23.498Z,18.80
2022-09-28T22:53:50.522Z,18.80
2022-09-28T22:56:19.010Z,18.80
2022-09-28T22:58:47.295Z,18.80
2022-09-28T23:01:28.999Z,18.80
2022-09-28T23:03:57.126Z,18.70
2022-09-28T23:06:26.319Z,18.70
2022-09-28T23:08:53.648Z,18.70
2022-09-28T23:11:20.666Z,18.70
2022-09-28T23:13:55.890Z,18.70
2022-09-28T23:16:25.452Z,18.70
2022-09-28T23:18:54.372Z,18.70
2022-09-28T23:21:24.223Z,18.70
2022-09-28T23:23:56.968Z,18.70
2022-09-28T23:26:27.366Z,18.70
2022-09-28T23:28:55.382Z,18.70
2022-09-28T23:31:25.294Z,18.70
2022-09-28T23:33:56.507Z,18.70
2022-09-28T23:36:23.624Z,18.70
2022-09-28T23:38:50.571Z,18.70
2022-09-28T23:41:17.550Z,18.60
2022-09-28T23:43:44.574Z,18.60
2022-09-28T23:46:11.771Z,18.60
2022-09-28T23:48:38.958Z,18.60
2022-09-28T23:51:06.649Z,18.50
2022-09-28T23:53:33.779Z,18.50
2022-09-28T23:56:01.096Z,18.50
2022-09-28T23:58:28.225Z,18.50
